createdAt,value
2022-11-01T00:01:00.546Z,-28.5
2022-11-01T00:05:03.349Z,-28.3
2022-11-01T00:07:05.196Z,-28.6
2022-11-01T00:09:06.746Z,-28.7
2022-11-01T00:11:07.933Z,-28.5
2022-11-01T00:13:09.329Z,-28.4
2022-11-01T00:15:10.631Z,-28.6
2022-11-01T00:19:13.460Z,-28.7
2022-11-01T00:21:14.902Z,-28.5
2022-11-01T00:23:16.603Z,-28.6
2022-11-01T00:25:17.675Z,-28.8
2022-11-01T00:27:18.714Z,-28.7
2022-11-01T00:29:19.637Z,-28.7
2022-11-01T00:31:21.327Z,-28.9
2022-11-01T00:33:22.373Z,-28.7
2022-11-01T00:35:23.224Z,-28.7
2022-11-01T00:37:24.733Z,-28.5
2022-11-01T00:41:26.924Z,-28.8
2022-11-01T00:43:28.253Z,-28.6
2022-11-01T00:45:30.069Z,-28.8
2022-11-01T00:47:31.108Z,-28.5
2022-11-01T00:49:33.021Z,-28.7
2022-11-01T00:51:33.986Z,-28.7
2022-11-01T00:53:35.757Z,-28.5
2022-11-01T00:55:37.086Z,-28.4
2022-11-01T00:57:38.943Z,-28.6
2022-11-01T01:03:44.205Z,-28.9
2022-11-01T01:05:45.523Z,-28.7
2022-11-01T01:07:46.778Z,-28.6
2022-11-01T01:09:47.837Z,-28.5
2022-11-01T01:11:49.516Z,-28.7
2022-11-01T01:13:51.171Z,-28.4
2022-11-01T01:17:54.069Z,-28.8
2022-11-01T01:19:55.591Z,-28.7
2022-11-01T01:21:56.856Z,-28.9
2022-11-01T01:23:58.068Z,-28.7
2022-11-01T01:30:02.428Z,-28.8
2022-11-01T01:32:03.970Z,-28.8
2022-11-01T01:34:04.870Z,-28.5
2022-11-01T01:36:06.056Z,-28.6
2022-11-01T01:40:08.529Z,-28.4
2022-11-01T01:44:10.813Z,-29
2022-11-01T01:46:12.571Z,-28.4
2022-11-01T01:48:13.884Z,-28.7
2022-11-01T01:50:15.339Z,-28.6
2022-11-01T01:52:16.800Z,-28.6
2022-11-01T01:54:17.987Z,-28.7
2022-11-01T01:56:19.301Z,-28.6
2022-11-01T01:58:21.003Z,-28.6
2022-11-01T02:00:22.849Z,-28.6
2022-11-01T02:02:24.323Z,-28.7
2022-11-01T02:04:25.912Z,-28.5
2022-11-01T02:06:27.431Z,-28.9
2022-11-01T02:08:28.516Z,-28.5
2022-11-01T02:12:31.981Z,-28.8
2022-11-01T02:14:42.713Z,-28.4
2022-11-01T02:16:34.756Z,-28.7
2022-11-01T02:18:36.562Z,-29
2022-11-01T02:20:38.408Z,-28.5
2022-11-01T02:22:40.223Z,-28.6
2022-11-01T02:24:42.108Z,-28.9
2022-11-01T02:26:43.646Z,-28.6
2022-11-01T02:28:45.298Z,-28.6
2022-11-01T02:30:47.096Z,-28.5
2022-11-01T02:32:48.056Z,-28.6
2022-11-01T02:34:49.747Z,-28.8
2022-11-01T02:36:51.536Z,-28.7
2022-11-01T02:38:52.638Z,-28.5
2022-11-01T02:40:53.673Z,-28.5
2022-11-01T02:42:55.518Z,-29
2022-11-01T02:44:57.048Z,-28.5
2022-11-01T02:46:58.319Z,-28.5
2022-11-01T02:48:59.562Z,-28.5
2022-11-01T02:51:01.075Z,-28.8
2022-11-01T02:55:04.306Z,-28.7
2022-11-01T02:57:06.340Z,-28.7
2022-11-01T02:59:07.688Z,-28.7
2022-11-01T03:01:09.687Z,-28.8
2022-11-01T03:03:11.100Z,-28.7
2022-11-01T03:05:12.909Z,-28.7
2022-11-01T03:11:16.691Z,-28.5
2022-11-01T03:13:18.324Z,-28.7
2022-11-01T03:15:20.196Z,-28.8
2022-11-01T03:17:21.742Z,-28.6
2022-11-01T03:19:23.283Z,-29
2022-11-01T03:21:24.576Z,-28.6
2022-11-01T03:22:08.368Z,-29.1
2022-11-01T03:26:11.272Z,-28.7
2022-11-01T03:28:12.938Z,-28.6
2022-11-01T03:30:14.272Z,-28.7
2022-11-01T03:32:15.596Z,-28.7
2022-11-01T03:34:17.297Z,-28.5
2022-11-01T03:36:18.639Z,-28.5
2022-11-01T03:38:19.651Z,-28.7
2022-11-01T03:42:22.278Z,-28.5
2022-11-01T03:44:24.109Z,-28.7
2022-11-01T03:46:25.164Z,-28.7
2022-11-01T03:48:26.909Z,-28.6
2022-11-01T03:52:30.021Z,-28.8
2022-11-01T03:54:31.177Z,-28.8
2022-11-01T03:56:32.593Z,-28.6
2022-11-01T03:58:33.946Z,-28.7
2022-11-01T04:02:36.363Z,-28.8
2022-11-01T04:04:37.470Z,-28.9
2022-11-01T04:06:38.497Z,-28.9
2022-11-01T04:08:40.407Z,-28.8
2022-11-01T04:12:43.008Z,-28.8
2022-11-01T04:14:44.285Z,-29.1
2022-11-01T04:16:45.254Z,-28.9
2022-11-01T04:18:46.502Z,-28.8
2022-11-01T04:20:48.145Z,-28.9
2022-11-01T04:22:49.740Z,-28.8
2022-11-01T04:24:51.164Z,-28.9
2022-11-01T04:26:52.483Z,-28.6
2022-11-01T04:30:55.223Z,-29.2
2022-11-01T04:32:56.433Z,-29
2022-11-01T04:34:57.921Z,-28.8
2022-11-01T04:36:59.290Z,-28.7
2022-11-01T04:39:00.695Z,-29.1
2022-11-01T04:41:01.813Z,-28.9
2022-11-01T04:47:05.542Z,-28.9
2022-11-01T04:49:06.926Z,-29.1
2022-11-01T04:51:08.289Z,-28.9
2022-11-01T04:53:09.759Z,-29.1
2022-11-01T04:55:11.086Z,-28.9
2022-11-01T04:57:12.050Z,-28.6
2022-11-01T04:59:13.303Z,-29
2022-11-01T05:01:15.482Z,-29.1
2022-11-01T05:03:16.332Z,-29
2022-11-01T05:05:17.694Z,-29.1
2022-11-01T05:07:18.995Z,-29.2
2022-11-01T05:09:20.198Z,-29.4
2022-11-01T05:11:21.117Z,-28.9
2022-11-01T05:13:22.612Z,-28.7
2022-11-01T05:15:23.989Z,-29.1
2022-11-01T05:17:25.539Z,-29.1
2022-11-01T05:19:27.210Z,-29.2
2022-11-01T05:23:29.928Z,-29.3
2022-11-01T05:25:32.684Z,-29.1
2022-11-01T05:27:32.577Z,-29.4
2022-11-01T05:29:33.881Z,-29.5
2022-11-01T05:31:35.247Z,-28.9
2022-11-01T05:33:36.657Z,-29.1
2022-11-01T05:35:37.992Z,-29.5
2022-11-01T05:37:39.390Z,-29
2022-11-01T05:39:40.791Z,-29.4
2022-11-01T05:45:44.858Z,-29.2
2022-11-01T05:47:46.499Z,-29.5
2022-11-01T05:49:47.920Z,-29.1
2022-11-01T05:51:49.307Z,-29.2
2022-11-01T05:53:51.100Z,-29.3
2022-11-01T05:55:52.875Z,-29
2022-11-01T05:57:54.453Z,-29.1
2022-11-01T05:59:55.554Z,-29.3
2022-11-01T06:01:56.788Z,-29.3
2022-11-01T06:05:59.646Z,-29.4
2022-11-01T06:08:01.531Z,-29.2
2022-11-01T06:10:03.003Z,-29.3
2022-11-01T06:12:04.318Z,-29.2
2022-11-01T06:16:06.194Z,-28.4
2022-11-01T06:18:07.931Z,-29.6
2022-11-01T06:20:09.660Z,-29.2
2022-11-01T06:22:11.573Z,-29.3
2022-11-01T06:24:12.672Z,-29.2
2022-11-01T06:26:14.518Z,-29.2
2022-11-01T06:28:15.634Z,-29.3
2022-11-01T06:30:16.566Z,-28.4
2022-11-01T06:32:17.973Z,-29.3
2022-11-01T06:34:18.910Z,-29.7
2022-11-01T06:36:19.945Z,-29.3
2022-11-01T06:38:21.383Z,-28.4
2022-11-01T06:40:22.397Z,-28.7
2022-11-01T06:42:23.889Z,-28.5
2022-11-01T06:44:24.947Z,-28.5
2022-11-01T06:46:25.942Z,-29.6
2022-11-01T06:48:27.358Z,-29.6
2022-11-01T06:56:33.432Z,-28.5
2022-11-01T06:58:34.697Z,-28.4
2022-11-01T07:00:36.171Z,-28.4
2022-11-01T07:02:38.273Z,-28.5
2022-11-01T07:04:39.155Z,-28.4
2022-11-01T07:10:43.397Z,-28.3
2022-11-01T07:12:44.421Z,-28.6
2022-11-01T07:14:46.007Z,-28.5
2022-11-01T07:16:47.526Z,-28.4
2022-11-01T07:18:49.394Z,-28.4
2022-11-01T07:20:50.659Z,-28.5
2022-11-01T07:22:51.586Z,-28.6
2022-11-01T07:24:52.974Z,-28.4
2022-11-01T07:26:54.874Z,-28.5
2022-11-01T07:28:56.290Z,-28.4
2022-11-01T07:30:57.465Z,-28.2
2022-11-01T07:32:59.207Z,-28.2
2022-11-01T07:34:59.997Z,-28.3
2022-11-01T07:37:01.278Z,-28.3
2022-11-01T07:39:02.423Z,-28.3
2022-11-01T07:41:03.975Z,-28.3
2022-11-01T07:43:05.605Z,-28.3
2022-11-01T07:47:07.629Z,-28.4
2022-11-01T07:49:09.457Z,-28.3
2022-11-01T07:51:10.563Z,-28.3
2022-11-01T07:53:12.261Z,-28.3
2022-11-01T07:55:13.367Z,-28.3
2022-11-01T07:57:14.520Z,-28.4
2022-11-01T07:59:16.052Z,-28.4
2022-11-01T08:01:17.089Z,-28.7
2022-11-01T08:03:18.711Z,-28.8
2022-11-01T08:09:23.402Z,-29.1
2022-11-01T08:11:25.064Z,-27.9
2022-11-01T08:13:26.120Z,-23.2
2022-11-01T08:15:27.514Z,-20.2
2022-11-01T08:17:29.385Z,-19.1
2022-11-01T08:19:31.011Z,-19.6
2022-11-01T08:23:32.995Z,-17.4
2022-11-01T08:25:34.341Z,-16
2022-11-01T08:27:35.901Z,-15.6
2022-11-01T08:29:37.395Z,-8.7
2022-11-01T08:35:43.620Z,-1.1
2022-11-01T08:39:44.007Z,1.9
2022-11-01T08:41:45.479Z,4.1
2022-11-01T08:45:48.807Z,7.7
2022-11-01T08:47:50.618Z,10.3
2022-11-01T08:49:52.215Z,15.6
2022-11-01T08:51:53.199Z,17.2
2022-11-01T08:53:54.404Z,17.6
2022-11-01T08:55:56.112Z,19.6
2022-11-01T08:57:57.068Z,20.29
2022-11-01T08:59:58.748Z,27.4
2022-11-01T09:01:59.754Z,26.5
2022-11-01T09:04:00.943Z,32.4
2022-11-01T09:06:02.132Z,40.59
2022-11-01T09:08:04.157Z,47.3
2022-11-01T09:10:05.276Z,40.09
2022-11-01T09:12:09.697Z,57.1
2022-11-01T09:14:08.143Z,51.7
2022-11-01T09:16:09.975Z,41.5
2022-11-01T09:18:10.960Z,40.7
2022-11-01T09:22:13.941Z,80.69
2022-11-01T09:24:15.460Z,80
2022-11-01T09:26:16.769Z,79.6
2022-11-01T09:28:17.850Z,79.19
2022-11-01T09:30:19.025Z,78.19
2022-11-01T09:34:21.760Z,77.19
2022-11-01T09:36:23.560Z,76.5
2022-11-01T09:38:25.239Z,76.3
2022-11-01T09:40:25.949Z,76
2022-11-01T09:42:27.695Z,75.5
2022-11-01T09:44:28.955Z,75.1
2022-11-01T09:48:31.551Z,73.69
2022-11-01T09:50:33.268Z,73.3
2022-11-01T09:52:34.980Z,72.4
2022-11-01T09:54:35.840Z,72
2022-11-01T09:56:36.726Z,71.6
2022-11-01T09:58:37.976Z,71
2022-11-01T10:00:39.289Z,69.5
2022-11-01T10:02:40.889Z,69.69
2022-11-01T10:04:42.547Z,69
2022-11-01T10:06:43.480Z,68.5
2022-11-01T10:07:27.275Z,68
2022-11-01T10:11:29.598Z,66.3
2022-11-01T10:15:32.144Z,65
2022-11-01T10:17:32.947Z,63.4
2022-11-01T10:19:34.520Z,62.8
2022-11-01T10:21:36.135Z,60.8
2022-11-01T10:25:39.292Z,58.1
2022-11-01T10:27:40.552Z,56.9
2022-11-01T10:29:41.603Z,55.6
2022-11-01T10:31:42.399Z,53.2
2022-11-01T10:33:44.072Z,51.9
2022-11-01T10:35:45.753Z,50.1
2022-11-01T10:37:52.054Z,48.5
2022-11-01T10:39:54.607Z,46.8
2022-11-01T10:41:49.740Z,45.5
2022-11-01T10:43:51.167Z,44.3
2022-11-01T10:45:52.121Z,43.9
2022-11-01T10:47:53.836Z,43.4
2022-11-01T10:50:06.363Z,41.4
2022-11-01T10:53:57.184Z,37.8
2022-11-01T10:58:00.541Z,33.5
2022-11-01T11:00:01.857Z,32.5
2022-11-01T11:02:03.163Z,27.5
2022-11-01T11:04:04.002Z,26.4
2022-11-01T11:10:07.952Z,21.6
2022-11-01T11:12:09.194Z,21.3
2022-11-01T11:14:10.519Z,20.29
2022-11-01T11:16:11.500Z,19
2022-11-01T11:18:13.109Z,17.29
2022-11-01T11:20:13.940Z,16.9
2022-11-01T11:24:17.150Z,14.8
2022-11-01T11:26:18.453Z,14.1
2022-11-01T11:28:19.683Z,13.6
2022-11-01T11:30:20.949Z,13.7
2022-11-01T11:32:22.776Z,11.6
2022-11-01T11:34:24.266Z,10.8
2022-11-01T11:36:25.097Z,11.4
2022-11-01T11:38:26.143Z,11.4
2022-11-01T11:40:27.068Z,9.5
2022-11-01T11:42:28.655Z,9.39
2022-11-01T11:46:31.341Z,8.5
2022-11-01T11:48:32.334Z,-28.1
2022-11-01T11:50:33.243Z,-28.2
2022-11-01T11:52:38.212Z,-28.2
2022-11-01T11:56:36.917Z,-28.3
2022-11-01T11:58:37.927Z,-28.3
2022-11-01T12:00:39.279Z,-28.4
2022-11-01T12:02:40.667Z,-28
2022-11-01T12:04:42.431Z,-28.3
2022-11-01T12:06:43.803Z,-28
2022-11-01T12:08:45.319Z,-28.4
2022-11-01T12:10:46.751Z,-28.2
2022-11-01T12:12:48.249Z,-28
2022-11-01T12:16:51.235Z,-28
2022-11-01T12:18:52.601Z,-28.2
2022-11-01T12:22:55.807Z,-28.2
2022-11-01T12:24:57.598Z,-28.4
2022-11-01T12:26:58.590Z,-28.5
2022-11-01T12:29:00.469Z,-28.1
2022-11-01T12:31:01.284Z,-28.4
2022-11-01T12:35:03.410Z,-28.4
2022-11-01T12:41:08.007Z,-28.5
2022-11-01T12:43:08.917Z,-28.4
2022-11-01T12:45:10.627Z,-28.5
2022-11-01T12:49:13.088Z,-28.5
2022-11-01T12:51:14.524Z,-28.7
2022-11-01T12:53:15.496Z,-28.3
2022-11-01T12:55:18.180Z,-28.3
2022-11-01T12:57:18.134Z,-28.6
2022-11-01T12:59:19.455Z,-28.5
2022-11-01T13:01:20.707Z,-28.4
2022-11-01T13:03:21.659Z,-28.8
2022-11-01T13:05:22.844Z,-28.4
2022-11-01T13:07:24.660Z,-28.8
2022-11-01T13:09:26.293Z,-28.5
2022-11-01T13:11:27.197Z,-28.6
2022-11-01T13:13:28.111Z,-28.6
2022-11-01T13:15:29.302Z,-28.5
2022-11-01T13:17:30.174Z,-28.7
2022-11-01T13:21:18.876Z,-28.5
2022-11-01T13:21:32.239Z,-28.9
2022-11-01T13:27:35.779Z,-28.5
2022-11-01T13:29:37.037Z,-28.9
2022-11-01T13:31:37.863Z,-28.8
2022-11-01T13:33:38.890Z,-28.9
2022-11-01T13:37:41.573Z,-28.8
2022-11-01T13:39:42.790Z,-28.6
2022-11-01T13:45:47.484Z,-29
2022-11-01T13:47:48.732Z,-28.6
2022-11-01T13:49:52.188Z,-28.8
2022-11-01T13:51:51.918Z,-28.7
2022-11-01T13:53:52.965Z,-28.6
2022-11-01T13:57:55.657Z,-28.8
2022-11-01T13:59:56.788Z,-28.6
2022-11-01T14:01:57.735Z,-28.7
2022-11-01T14:03:59.163Z,-28.5
2022-11-01T14:06:00.129Z,-28.7
2022-11-01T14:08:01.891Z,-28.5
2022-11-01T14:10:03.034Z,-29
2022-11-01T14:12:04.432Z,-28.5
2022-11-01T14:16:07.194Z,-28.6
2022-11-01T14:20:09.659Z,-28.7
2022-11-01T14:22:10.860Z,-28.6
2022-11-01T14:24:12.393Z,-28.7
2022-11-01T14:26:13.856Z,-28.8
2022-11-01T14:32:17.509Z,-28.7
2022-11-01T14:34:19.095Z,-28.7
2022-11-01T14:36:20.484Z,-28.9
2022-11-01T14:38:22.346Z,-28.7
2022-11-01T14:40:24.096Z,-28.6
2022-11-01T14:42:25.488Z,-29
2022-11-01T14:48:29.856Z,-28.6
2022-11-01T14:50:30.850Z,-28.3
2022-11-01T14:52:32.530Z,-28.7
2022-11-01T14:54:34.300Z,-28.7
2022-11-01T14:56:39.887Z,-28.7
2022-11-01T14:58:36.487Z,-29
2022-11-01T15:02:39.519Z,-28.9
2022-11-01T15:04:40.210Z,-28.7
2022-11-01T15:06:41.129Z,-28.7
2022-11-01T15:08:42.563Z,-28.9
2022-11-01T15:10:44.154Z,-28.8
2022-11-01T15:12:47.625Z,-28.7
2022-11-01T15:14:46.948Z,-28.8
2022-11-01T15:16:48.613Z,-28.9
2022-11-01T15:18:50.237Z,-28.6
2022-11-01T15:20:51.348Z,-28.6
2022-11-01T15:22:52.863Z,-28.7
2022-11-01T15:24:54.141Z,-28.4
2022-11-01T15:26:55.203Z,-28.6
2022-11-01T15:28:56.502Z,-28.6
2022-11-01T15:30:57.629Z,-28.4
2022-11-01T15:35:00.325Z,-28.5
2022-11-01T15:37:02.002Z,-28.5
2022-11-01T15:39:03.562Z,-28.5
2022-11-01T15:41:05.387Z,-28.5
2022-11-01T15:43:06.845Z,-28.5
2022-11-01T15:47:08.954Z,-28.5
2022-11-01T15:49:10.151Z,-28.2
2022-11-01T15:51:11.433Z,-28.5
2022-11-01T15:53:12.385Z,-28.3
2022-11-01T15:55:13.291Z,-28.3
2022-11-01T15:57:14.231Z,-28.5
2022-11-01T16:03:19.168Z,-28.4
2022-11-01T16:05:20.873Z,-28.4
2022-11-01T16:07:22.468Z,-28.5
2022-11-01T16:09:24.251Z,-28.4
2022-11-01T16:11:25.179Z,-28.5
2022-11-01T16:13:26.649Z,-28.2
2022-11-01T16:15:27.632Z,-28.1
2022-11-01T16:17:29.135Z,-27.9
2022-11-01T16:19:30.319Z,-28.2
2022-11-01T16:23:33.520Z,-28.3
2022-11-01T16:25:35.021Z,-28.3
2022-11-01T16:27:36.126Z,-28.5
2022-11-01T16:29:37.281Z,-28.3
2022-11-01T16:33:39.959Z,-28.4
2022-11-01T16:35:41.806Z,-28.5
2022-11-01T16:37:43.600Z,-28.3
2022-11-01T16:39:45.200Z,-28.4
2022-11-01T16:43:48.493Z,-28
2022-11-01T16:45:49.377Z,-28
2022-11-01T16:47:54.320Z,-28.5
2022-11-01T16:49:52.343Z,-28.5
2022-11-01T16:52:37.668Z,-28.2
2022-11-01T16:54:39.279Z,-28.2
2022-11-01T16:56:40.794Z,-28.2
2022-11-01T16:58:41.772Z,-27.9
2022-11-01T17:00:42.981Z,-28.5
2022-11-01T17:02:44.419Z,-28.2
2022-11-01T17:06:46.796Z,-28.4
2022-11-01T17:10:49.652Z,-28.5
2022-11-01T17:12:50.843Z,-28
2022-11-01T17:14:52.690Z,-28
2022-11-01T17:16:54.488Z,-28.3
2022-11-01T17:22:58.874Z,-28.3
2022-11-01T17:25:00.319Z,-28
2022-11-01T17:27:01.338Z,-28.3
2022-11-01T17:29:02.586Z,-28.3
2022-11-01T17:31:03.913Z,-28
2022-11-01T17:33:05.561Z,-28.1
2022-11-01T17:35:06.763Z,-28.3
2022-11-01T17:37:07.717Z,-28.2
2022-11-01T17:39:08.996Z,-28.2
2022-11-01T17:41:10.179Z,-28.4
2022-11-01T17:43:11.101Z,-28.2
2022-11-01T17:45:12.815Z,-28
2022-11-01T17:47:14.574Z,-28.4
2022-11-01T17:49:15.702Z,-28.1
2022-11-01T17:51:17.456Z,-28.4
2022-11-01T17:53:19.153Z,-28.3
2022-11-01T17:55:20.949Z,-28
2022-11-01T17:57:22.006Z,-28.4
2022-11-01T17:59:23.712Z,-28.2
2022-11-01T18:01:24.790Z,-28.4
2022-11-01T18:03:25.760Z,-28.4
2022-11-01T18:05:27.644Z,-28.4
2022-11-01T18:09:31.270Z,-28.3
2022-11-01T18:11:33.146Z,-28.3
2022-11-01T18:13:34.606Z,-28
2022-11-01T18:15:36.008Z,-28.4
2022-11-01T18:21:40.248Z,-28.4
2022-11-01T18:23:41.371Z,-28.2
2022-11-01T18:25:42.461Z,-28.5
2022-11-01T18:27:44.043Z,-28.3
2022-11-01T18:29:45.601Z,-28.6
2022-11-01T18:31:47.313Z,-28.5
2022-11-01T18:33:48.897Z,-28.3
2022-11-01T18:35:50.752Z,-28.4
2022-11-01T18:37:52.439Z,-28.3
2022-11-01T18:41:54.932Z,-28.8
2022-11-01T18:43:55.875Z,-28.3
2022-11-01T18:46:23.167Z,-28.3
2022-11-01T18:47:58.942Z,-28.4
2022-11-01T18:50:00.682Z,-28.3
2022-11-01T18:52:02.617Z,-28.4
2022-11-01T18:54:04.555Z,-28.3
2022-11-01T18:56:05.668Z,-28.5
2022-11-01T18:58:06.590Z,-28.5
2022-11-01T19:04:10.644Z,-28.4
2022-11-01T19:06:12.400Z,-28.4
2022-11-01T19:08:13.676Z,-28.2
2022-11-01T19:10:15.021Z,-28.6
2022-11-01T19:12:16.475Z,-28.1
2022-11-01T19:14:17.568Z,-28.4
2022-11-01T19:18:20.049Z,-28.6
2022-11-01T19:20:21.119Z,-28.2
2022-11-01T19:22:22.150Z,-28.3
2022-11-01T19:24:23.365Z,-28.4
2022-11-01T19:26:24.604Z,-28.3
2022-11-01T19:30:26.828Z,-28.3
2022-11-01T19:34:29.913Z,-28.2
2022-11-01T19:36:31.180Z,-28.4
2022-11-01T19:38:32.855Z,-28.3
2022-11-01T19:40:34.363Z,-28.2
2022-11-01T19:46:38.880Z,-28.2
2022-11-01T19:48:40.142Z,-28.2
2022-11-01T19:50:41.242Z,-28.4
2022-11-01T19:52:46.947Z,-28.5
2022-11-01T19:54:43.681Z,-28.3
2022-11-01T19:56:45.055Z,-28.4
2022-11-01T19:58:46.310Z,-28.4
2022-11-01T20:00:47.958Z,-28.3
2022-11-01T20:02:49.213Z,-28.2
2022-11-01T20:04:50.268Z,-28.3
2022-11-01T20:06:51.583Z,-28.5
2022-11-01T20:08:52.974Z,-28.3
2022-11-01T20:10:54.813Z,-28.2
2022-11-01T20:12:56.121Z,-28.4
2022-11-01T20:14:57.746Z,-28.4
2022-11-01T20:16:59.161Z,-28.2
2022-11-01T20:19:00.696Z,-28.3
2022-11-01T20:21:02.105Z,-28.3
2022-11-01T20:23:20.736Z,-28.5
2022-11-01T20:25:05.218Z,-28.3
2022-11-01T20:27:06.451Z,-28.2
2022-11-01T20:29:07.530Z,-28.6
2022-11-01T20:31:08.873Z,-28.4
2022-11-01T20:33:10.614Z,-28.2
2022-11-01T20:35:12.468Z,-28.3
2022-11-01T20:37:27.886Z,-28.3
2022-11-01T20:39:16.298Z,-28.1
2022-11-01T20:45:20.542Z,-28.3
2022-11-01T20:47:21.703Z,-28.3
2022-11-01T20:49:23.499Z,-28.2
2022-11-01T20:51:24.963Z,-28.3
2022-11-01T20:53:29.606Z,-28.5
2022-11-01T20:55:27.579Z,-28.2
2022-11-01T20:57:28.786Z,-28.3
2022-11-01T20:59:29.893Z,-28.2
2022-11-01T21:01:31.531Z,-28.2
2022-11-01T21:05:34.294Z,-28.4
2022-11-01T21:07:35.776Z,-28.5
2022-11-01T21:09:37.466Z,-28.3
2022-11-01T21:11:38.731Z,-28.2
2022-11-01T21:13:40.523Z,-28.3
2022-11-01T21:15:41.667Z,-28.3
2022-11-01T21:17:43.205Z,-28.5
2022-11-01T21:19:44.891Z,-28.3
2022-11-01T21:21:46.940Z,-28.5
2022-11-01T21:25:48.707Z,-28.3
2022-11-01T21:27:49.866Z,-28.2
2022-11-01T21:29:51.494Z,-28.4
2022-11-01T21:31:52.751Z,-28.2
2022-11-01T21:35:56.157Z,-28.6
2022-11-01T21:37:57.503Z,-28.4
2022-11-01T21:40:03.307Z,-28.2
2022-11-01T21:42:00.599Z,-28
2022-11-01T21:44:02.104Z,-28.2
2022-11-01T21:46:04.048Z,-28.6
2022-11-01T21:48:06.002Z,-28.4
2022-11-01T21:54:09.896Z,-28.4
2022-11-01T21:56:11.343Z,-28.4
2022-11-01T21:58:12.827Z,-28.3
2022-11-01T22:00:14.093Z,-28.2
2022-11-01T22:02:16.224Z,-28.4
2022-11-01T22:04:17.609Z,-28.3
2022-11-01T22:06:18.710Z,-28.6
2022-11-01T22:08:20.079Z,-28.2
2022-11-01T22:10:21.413Z,-28.4
2022-11-01T22:12:23.110Z,-28.3
2022-11-01T22:14:24.647Z,-28.5
2022-11-01T22:16:26.148Z,-28.3
2022-11-01T22:18:27.950Z,-28.2
2022-11-01T22:20:29.709Z,-28.1
2022-11-01T22:22:31.048Z,-28.3
2022-11-01T22:24:32.256Z,-28.3
2022-11-01T22:26:33.755Z,-28.2
2022-11-01T22:28:35.015Z,-28.3
2022-11-01T22:30:36.836Z,-28.2
2022-11-01T22:32:38.700Z,-28.4
2022-11-01T22:36:41.229Z,-27.9
2022-11-01T22:40:44.358Z,-28.1
2022-11-01T22:42:45.450Z,-28.5
2022-11-01T22:44:46.714Z,-28.4
2022-11-01T22:46:51.218Z,-28.4
2022-11-01T22:50:52.150Z,-28.2
2022-11-01T22:52:53.525Z,-28.3
2022-11-01T22:54:54.526Z,-28.5
2022-11-01T22:56:56.089Z,-28.2
2022-11-01T22:58:57.545Z,-28.3
2022-11-01T23:00:59.465Z,-28.1
2022-11-01T23:03:00.800Z,-28.1
2022-11-01T23:05:02.045Z,-28.6
2022-11-01T23:07:03.593Z,-28.3
2022-11-01T23:09:05.076Z,-28.2
2022-11-01T23:11:06.757Z,-28.4
2022-11-01T23:13:07.771Z,-28
2022-11-01T23:15:08.736Z,-28.6
2022-11-01T23:17:10.270Z,-28.3
2022-11-01T23:19:11.512Z,-28.5
2022-11-01T23:21:12.843Z,-28.4
2022-11-01T23:23:14.472Z,-28.4
2022-11-01T23:25:15.709Z,-28.4
2022-11-01T23:29:18.091Z,-28.1
2022-11-01T23:31:20.025Z,-28.2
2022-11-01T23:33:21.227Z,-28.3
2022-11-01T23:35:22.476Z,-28.2
2022-11-01T23:37:23.632Z,-28.3
2022-11-01T23:44:11.947Z,-28.3
2022-11-01T23:46:13.612Z,-28.2
2022-11-01T23:48:14.687Z,-28.4
2022-11-01T23:50:16.398Z,-28.3
2022-11-01T23:52:17.517Z,-28.2
2022-11-01T23:54:18.941Z,-28.2
2022-11-01T23:56:20.627Z,-28.4
